sensor_id;sensor_type;location;lat;lon;timestamp;temperature;humidity
66184;DHT22;52989;48.796;9.806;2023-02-22T00:02:25;3.40;99.90
66184;DHT22;52989;48.796;9.806;2023-02-22T00:04:53;3.40;99.90
66184;DHT22;52989;48.796;9.806;2023-02-22T00:07:19;3.40;99.90
66184;DHT22;52989;48.796;9.806;2023-02-22T00:09:45;3.10;99.90
66184;DHT22;52989;48.796;9.806;2023-02-22T00:12:11;2.80;99.90
66184;DHT22;52989;48.796;9.806;2023-02-22T00:14:36;2.80;99.90
66184;DHT22;52989;48.796;9.806;2023-02-22T00:17:02;2.80;99.90
66184;DHT22;52989;48.796;9.806;2023-02-22T00:19:27;2.80;99.90
66184;DHT22;52989;48.796;9.806;2023-02-22T00:21:55;3.00;99.90
66184;DHT22;52989;48.796;9.806;2023-02-22T00:24:22;2.80;99.90
66184;DHT22;52989;48.796;9.806;2023-02-22T00:26:51;2.60;99.90
66184;DHT22;52989;48.796;9.806;2023-02-22T00:29:20;2.70;99.90
66184;DHT22;52989;48.796;9.806;2023-02-22T00:31:45;2.70;99.90
66184;DHT22;52989;48.796;9.806;2023-02-22T00:34:12;2.60;99.90
66184;DHT22;52989;48.796;9.806;2023-02-22T00:36:38;2.80;99.90
66184;DHT22;52989;48.796;9.806;2023-02-22T00:39:03;2.70;99.90
66184;DHT22;52989;48.796;9.806;2023-02-22T00:41:28;2.60;99.90
66184;DHT22;52989;48.796;9.806;2023-02-22T00:43:54;2.50;99.90
66184;DHT22;52989;48.796;9.806;2023-02-22T00:46:19;2.50;99.90
66184;DHT22;52989;48.796;9.806;2023-02-22T00:48:45;2.80;99.90
66184;DHT22;52989;48.796;9.806;2023-02-22T00:51:10;3.00;99.90
66184;DHT22;52989;48.796;9.806;2023-02-22T00:53:36;3.20;99.90
66184;DHT22;52989;48.796;9.806;2023-02-22T00:56:01;3.10;99.90
66184;DHT22;52989;48.796;9.806;2023-02-22T00:58:27;3.00;99.90
66184;DHT22;52989;48.796;9.806;2023-02-22T01:00:53;3.10;99.90
66184;DHT22;52989;48.796;9.806;2023-02-22T01:03:19;2.90;99.90
66184;DHT22;52989;48.796;9.806;2023-02-22T01:05:44;2.90;99.90
66184;DHT22;52989;48.796;9.806;2023-02-22T01:08:10;3.00;99.90
66184;DHT22;52989;48.796;9.806;2023-02-22T01:10:37;2.80;99.90
66184;DHT22;52989;48.796;9.806;2023-02-22T01:13:03;2.90;99.90
66184;DHT22;52989;48.796;9.806;2023-02-22T01:15:33;2.50;99.90
66184;DHT22;52989;48.796;9.806;2023-02-22T01:17:58;2.60;99.90
66184;DHT22;52989;48.796;9.806;2023-02-22T01:20:24;2.60;99.90
66184;DHT22;52989;48.796;9.806;2023-02-22T01:22:51;2.50;99.90
66184;DHT22;52989;48.796;9.806;2023-02-22T01:25:19;2.50;99.90
66184;DHT22;52989;48.796;9.806;2023-02-22T01:27:45;2.60;99.90
66184;DHT22;52989;48.796;9.806;2023-02-22T01:30:11;2.90;99.90
66184;DHT22;52989;48.796;9.806;2023-02-22T01:32:38;2.90;99.90
66184;DHT22;52989;48.796;9.806;2023-02-22T01:35:05;3.00;99.90
66184;DHT22;52989;48.796;9.806;2023-02-22T01:37:35;2.50;99.90
66184;DHT22;52989;48.796;9.806;2023-02-22T01:40:02;2.20;99.90
66184;DHT22;52989;48.796;9.806;2023-02-22T01:42:28;2.20;99.90
66184;DHT22;52989;48.796;9.806;2023-02-22T01:47:38;2.80;99.90
66184;DHT22;52989;48.796;9.806;2023-02-22T01:50:03;2.80;99.90
66184;DHT22;52989;48.796;9.806;2023-02-22T01:52:29;2.40;99.90
66184;DHT22;52989;48.796;9.806;2023-02-22T01:54:56;2.30;99.90
66184;DHT22;52989;48.796;9.806;2023-02-22T01:57:30;2.30;99.90
66184;DHT22;52989;48.796;9.806;2023-02-22T02:00:08;2.10;99.90
66184;DHT22;52989;48.796;9.806;2023-02-22T02:02:35;2.10;99.90
66184;DHT22;52989;48.796;9.806;2023-02-22T02:05:01;2.20;99.90
66184;DHT22;52989;48.796;9.806;2023-02-22T02:07:26;2.90;99.90
66184;DHT22;52989;48.796;9.806;2023-02-22T02:09:57;3.10;99.90
66184;DHT22;52989;48.796;9.806;2023-02-22T02:12:23;2.90;99.90
66184;DHT22;52989;48.796;9.806;2023-02-22T02:14:50;2.30;99.90
66184;DHT22;52989;48.796;9.806;2023-02-22T02:17:18;1.90;99.90
66184;DHT22;52989;48.796;9.806;2023-02-22T02:20:01;1.80;99.90
66184;DHT22;52989;48.796;9.806;2023-02-22T02:33:05;2.20;99.90
66184;DHT22;52989;48.796;9.806;2023-02-22T02:38:31;2.10;99.90
66184;DHT22;52989;48.796;9.806;2023-02-22T02:41:06;2.00;99.90
66184;DHT22;52989;48.796;9.806;2023-02-22T02:43:38;1.80;99.90
66184;DHT22;52989;48.796;9.806;2023-02-22T02:46:09;1.70;99.90
66184;DHT22;52989;48.796;9.806;2023-02-22T02:48:37;1.70;99.90
66184;DHT22;52989;48.796;9.806;2023-02-22T02:51:04;1.90;99.90
66184;DHT22;52989;48.796;9.806;2023-02-22T02:53:35;1.70;99.90
66184;DHT22;52989;48.796;9.806;2023-02-22T02:56:01;1.50;99.90
66184;DHT22;52989;48.796;9.806;2023-02-22T02:58:27;1.40;99.90
66184;DHT22;52989;48.796;9.806;2023-02-22T03:00:53;1.50;99.90
66184;DHT22;52989;48.796;9.806;2023-02-22T03:03:36;1.80;99.90
66184;DHT22;52989;48.796;9.806;2023-02-22T03:06:18;1.60;99.90
66184;DHT22;52989;48.796;9.806;2023-02-22T03:08:54;1.60;99.90
66184;DHT22;52989;48.796;9.806;2023-02-22T03:11:22;1.60;99.90
66184;DHT22;52989;48.796;9.806;2023-02-22T03:14:00;1.90;99.90
66184;DHT22;52989;48.796;9.806;2023-02-22T03:21:32;2.30;99.90
66184;DHT22;52989;48.796;9.806;2023-02-22T03:24:07;2.60;99.90
66184;DHT22;52989;48.796;9.806;2023-02-22T03:26:35;2.80;99.90
66184;DHT22;52989;48.796;9.806;2023-02-22T03:29:02;2.90;99.90
66184;DHT22;52989;48.796;9.806;2023-02-22T03:31:30;2.40;99.90
66184;DHT22;52989;48.796;9.806;2023-02-22T03:33:59;2.00;99.90
66184;DHT22;52989;48.796;9.806;2023-02-22T03:36:30;2.00;99.90
66184;DHT22;52989;48.796;9.806;2023-02-22T03:38:58;1.70;99.90
66184;DHT22;52989;48.796;9.806;2023-02-22T03:41:24;2.00;99.90
66184;DHT22;52989;48.796;9.806;2023-02-22T03:43:59;1.80;99.90
66184;DHT22;52989;48.796;9.806;2023-02-22T03:46:25;1.70;99.90
66184;DHT22;52989;48.796;9.806;2023-02-22T03:48:55;1.60;99.90
66184;DHT22;52989;48.796;9.806;2023-02-22T03:51:24;1.90;99.90
66184;DHT22;52989;48.796;9.806;2023-02-22T03:53:50;2.00;99.90
66184;DHT22;52989;48.796;9.806;2023-02-22T03:56:21;1.90;99.90
66184;DHT22;52989;48.796;9.806;2023-02-22T03:58:47;1.80;99.90
66184;DHT22;52989;48.796;9.806;2023-02-22T04:01:13;1.90;99.90
66184;DHT22;52989;48.796;9.806;2023-02-22T04:03:39;1.70;99.90
66184;DHT22;52989;48.796;9.806;2023-02-22T04:06:06;1.60;99.90
66184;DHT22;52989;48.796;9.806;2023-02-22T04:08:32;1.50;99.90
66184;DHT22;52989;48.796;9.806;2023-02-22T04:10:57;1.60;99.90
66184;DHT22;52989;48.796;9.806;2023-02-22T04:13:23;1.80;99.90
66184;DHT22;52989;48.796;9.806;2023-02-22T04:15:48;1.80;99.90
66184;DHT22;52989;48.796;9.806;2023-02-22T04:18:13;1.70;99.90
66184;DHT22;52989;48.796;9.806;2023-02-22T04:20:39;1.70;99.90
66184;DHT22;52989;48.796;9.806;2023-02-22T04:23:04;1.60;99.90
66184;DHT22;52989;48.796;9.806;2023-02-22T04:25:30;1.50;99.90
66184;DHT22;52989;48.796;9.806;2023-02-22T04:27:55;1.80;99.90
66184;DHT22;52989;48.796;9.806;2023-02-22T04:30:21;1.80;99.90
66184;DHT22;52989;48.796;9.806;2023-02-22T04:32:47;1.60;99.90
66184;DHT22;52989;48.796;9.806;2023-02-22T04:35:13;1.50;99.90
66184;DHT22;52989;48.796;9.806;2023-02-22T04:37:38;1.30;99.90
66184;DHT22;52989;48.796;9.806;2023-02-22T04:40:04;1.20;99.90
66184;DHT22;52989;48.796;9.806;2023-02-22T04:42:32;1.60;99.90
66184;DHT22;52989;48.796;9.806;2023-02-22T04:44:58;1.30;99.90
66184;DHT22;52989;48.796;9.806;2023-02-22T04:47:23;1.40;99.90
66184;DHT22;52989;48.796;9.806;2023-02-22T04:49:49;1.60;99.90
66184;DHT22;52989;48.796;9.806;2023-02-22T04:52:14;1.50;99.90
66184;DHT22;52989;48.796;9.806;2023-02-22T04:54:40;1.60;99.90
66184;DHT22;52989;48.796;9.806;2023-02-22T04:57:05;1.80;99.90
66184;DHT22;52989;48.796;9.806;2023-02-22T04:59:31;1.60;99.90
66184;DHT22;52989;48.796;9.806;2023-02-22T05:01:57;1.50;99.90
66184;DHT22;52989;48.796;9.806;2023-02-22T05:04:22;1.80;99.90
66184;DHT22;52989;48.796;9.806;2023-02-22T05:06:48;2.20;99.90
66184;DHT22;52989;48.796;9.806;2023-02-22T05:09:13;2.50;99.90
66184;DHT22;52989;48.796;9.806;2023-02-22T05:11:39;2.20;99.90
66184;DHT22;52989;48.796;9.806;2023-02-22T05:14:05;1.60;99.90
66184;DHT22;52989;48.796;9.806;2023-02-22T05:16:30;1.40;99.90
66184;DHT22;52989;48.796;9.806;2023-02-22T05:18:56;1.30;99.90
66184;DHT22;52989;48.796;9.806;2023-02-22T05:21:21;1.20;99.90
66184;DHT22;52989;48.796;9.806;2023-02-22T05:23:47;1.10;99.90
66184;DHT22;52989;48.796;9.806;2023-02-22T05:26:13;1.10;99.90
66184;DHT22;52989;48.796;9.806;2023-02-22T05:28:38;1.40;99.90
66184;DHT22;52989;48.796;9.806;2023-02-22T05:31:04;1.20;99.90
66184;DHT22;52989;48.796;9.806;2023-02-22T05:33:29;1.20;99.90
66184;DHT22;52989;48.796;9.806;2023-02-22T05:35:55;1.50;99.90
66184;DHT22;52989;48.796;9.806;2023-02-22T05:38:20;1.30;99.90
66184;DHT22;52989;48.796;9.806;2023-02-22T05:40:47;1.30;99.90
66184;DHT22;52989;48.796;9.806;2023-02-22T05:43:12;1.60;99.90
66184;DHT22;52989;48.796;9.806;2023-02-22T05:45:40;1.40;99.90
66184;DHT22;52989;48.796;9.806;2023-02-22T05:48:05;1.50;99.90
66184;DHT22;52989;48.796;9.806;2023-02-22T05:50:31;1.40;99.90
66184;DHT22;52989;48.796;9.806;2023-02-22T05:52:57;1.80;99.90
66184;DHT22;52989;48.796;9.806;2023-02-22T05:55:23;1.80;99.90
66184;DHT22;52989;48.796;9.806;2023-02-22T05:57:49;1.80;99.90
66184;DHT22;52989;48.796;9.806;2023-02-22T06:00:16;1.70;99.90
66184;DHT22;52989;48.796;9.806;2023-02-22T06:02:42;1.80;99.90
66184;DHT22;52989;48.796;9.806;2023-02-22T06:05:07;1.30;99.90
66184;DHT22;52989;48.796;9.806;2023-02-22T06:07:32;1.20;99.90
66184;DHT22;52989;48.796;9.806;2023-02-22T06:09:58;1.30;99.90
66184;DHT22;52989;48.796;9.806;2023-02-22T06:12:23;1.40;99.90
66184;DHT22;52989;48.796;9.806;2023-02-22T06:14:49;1.40;99.90
66184;DHT22;52989;48.796;9.806;2023-02-22T06:17:14;1.40;99.90
66184;DHT22;52989;48.796;9.806;2023-02-22T06:19:40;1.20;99.90
66184;DHT22;52989;48.796;9.806;2023-02-22T06:22:06;1.20;99.90
66184;DHT22;52989;48.796;9.806;2023-02-22T06:24:31;1.40;99.90
66184;DHT22;52989;48.796;9.806;2023-02-22T06:26:58;1.40;99.90
66184;DHT22;52989;48.796;9.806;2023-02-22T06:29:24;1.30;99.90
66184;DHT22;52989;48.796;9.806;2023-02-22T06:31:50;1.40;99.90
66184;DHT22;52989;48.796;9.806;2023-02-22T06:34:16;1.50;99.90
66184;DHT22;52989;48.796;9.806;2023-02-22T06:36:42;1.20;99.90
66184;DHT22;52989;48.796;9.806;2023-02-22T06:39:07;1.00;99.90
66184;DHT22;52989;48.796;9.806;2023-02-22T06:41:36;1.10;99.90
66184;DHT22;52989;48.796;9.806;2023-02-22T06:44:02;1.10;99.90
66184;DHT22;52989;48.796;9.806;2023-02-22T06:46:27;1.30;99.90
66184;DHT22;52989;48.796;9.806;2023-02-22T06:48:53;1.20;99.90
66184;DHT22;52989;48.796;9.806;2023-02-22T06:51:19;1.80;99.90
66184;DHT22;52989;48.796;9.806;2023-02-22T06:53:44;1.80;99.90
66184;DHT22;52989;48.796;9.806;2023-02-22T06:56:10;1.80;99.90
66184;DHT22;52989;48.796;9.806;2023-02-22T06:58:35;1.50;99.90
66184;DHT22;52989;48.796;9.806;2023-02-22T07:01:01;1.80;99.90
66184;DHT22;52989;48.796;9.806;2023-02-22T07:03:28;1.90;99.90
66184;DHT22;52989;48.796;9.806;2023-02-22T07:05:53;1.50;99.90
66184;DHT22;52989;48.796;9.806;2023-02-22T07:08:19;1.60;99.90
66184;DHT22;52989;48.796;9.806;2023-02-22T07:10:45;1.60;99.90
66184;DHT22;52989;48.796;9.806;2023-02-22T07:13:10;1.60;99.90
66184;DHT22;52989;48.796;9.806;2023-02-22T07:15:36;1.50;99.90
66184;DHT22;52989;48.796;9.806;2023-02-22T07:18:01;1.80;99.90
66184;DHT22;52989;48.796;9.806;2023-02-22T07:20:28;1.80;99.90
66184;DHT22;52989;48.796;9.806;2023-02-22T07:22:53;1.80;99.90
66184;DHT22;52989;48.796;9.806;2023-02-22T07:25:19;1.70;99.90
66184;DHT22;52989;48.796;9.806;2023-02-22T07:27:45;2.20;99.90
66184;DHT22;52989;48.796;9.806;2023-02-22T07:30:14;2.30;99.90
66184;DHT22;52989;48.796;9.806;2023-02-22T07:32:41;2.00;99.90
66184;DHT22;52989;48.796;9.806;2023-02-22T07:35:09;2.10;99.90
66184;DHT22;52989;48.796;9.806;2023-02-22T07:37:38;2.10;99.90
66184;DHT22;52989;48.796;9.806;2023-02-22T07:40:03;2.40;99.90
66184;DHT22;52989;48.796;9.806;2023-02-22T07:42:28;2.30;99.90
66184;DHT22;52989;48.796;9.806;2023-02-22T07:44:54;2.40;99.90
66184;DHT22;52989;48.796;9.806;2023-02-22T07:47:19;2.40;99.90
66184;DHT22;52989;48.796;9.806;2023-02-22T07:49:45;2.80;99.90
66184;DHT22;52989;48.796;9.806;2023-02-22T07:52:10;2.60;99.90
66184;DHT22;52989;48.796;9.806;2023-02-22T07:54:36;2.90;99.90
66184;DHT22;52989;48.796;9.806;2023-02-22T07:57:02;3.00;99.90
66184;DHT22;52989;48.796;9.806;2023-02-22T07:59:27;3.10;99.90
66184;DHT22;52989;48.796;9.806;2023-02-22T08:01:53;3.30;99.90
66184;DHT22;52989;48.796;9.806;2023-02-22T08:04:18;3.20;99.90
66184;DHT22;52989;48.796;9.806;2023-02-22T08:06:44;3.40;99.90
66184;DHT22;52989;48.796;9.806;2023-02-22T08:09:10;3.80;99.90
66184;DHT22;52989;48.796;9.806;2023-02-22T08:11:36;3.70;99.90
66184;DHT22;52989;48.796;9.806;2023-02-22T08:14:01;4.00;99.90
66184;DHT22;52989;48.796;9.806;2023-02-22T08:16:27;4.00;99.90
66184;DHT22;52989;48.796;9.806;2023-02-22T08:18:52;4.40;99.90
66184;DHT22;52989;48.796;9.806;2023-02-22T08:21:18;4.20;99.90
66184;DHT22;52989;48.796;9.806;2023-02-22T08:23:43;4.40;99.90
66184;DHT22;52989;48.796;9.806;2023-02-22T08:26:09;4.50;99.90
66184;DHT22;52989;48.796;9.806;2023-02-22T08:28:35;4.80;99.90
66184;DHT22;52989;48.796;9.806;2023-02-22T08:31:00;5.00;99.90
66184;DHT22;52989;48.796;9.806;2023-02-22T08:33:26;4.90;99.90
66184;DHT22;52989;48.796;9.806;2023-02-22T08:35:51;5.10;99.90
66184;DHT22;52989;48.796;9.806;2023-02-22T08:38:23;5.40;99.90
66184;DHT22;52989;48.796;9.806;2023-02-22T08:40:48;5.50;99.90
66184;DHT22;52989;48.796;9.806;2023-02-22T08:43:14;5.60;99.90
66184;DHT22;52989;48.796;9.806;2023-02-22T08:45:40;5.70;99.90
66184;DHT22;52989;48.796;9.806;2023-02-22T08:48:06;6.10;99.90
66184;DHT22;52989;48.796;9.806;2023-02-22T08:50:31;6.30;99.90
66184;DHT22;52989;48.796;9.806;2023-02-22T08:53:02;6.30;99.90
66184;DHT22;52989;48.796;9.806;2023-02-22T08:55:30;6.50;99.90
66184;DHT22;52989;48.796;9.806;2023-02-22T08:57:57;6.70;99.90
66184;DHT22;52989;48.796;9.806;2023-02-22T09:00:23;6.80;99.90
66184;DHT22;52989;48.796;9.806;2023-02-22T09:02:50;7.00;99.90
66184;DHT22;52989;48.796;9.806;2023-02-22T09:05:15;7.20;99.90
66184;DHT22;52989;48.796;9.806;2023-02-22T09:07:41;7.30;99.90
66184;DHT22;52989;48.796;9.806;2023-02-22T09:10:07;7.70;99.90
66184;DHT22;52989;48.796;9.806;2023-02-22T09:12:33;7.80;99.90
66184;DHT22;52989;48.796;9.806;2023-02-22T09:14:58;7.90;99.90
66184;DHT22;52989;48.796;9.806;2023-02-22T09:17:24;8.20;99.90
66184;DHT22;52989;48.796;9.806;2023-02-22T09:19:49;8.20;99.90
66184;DHT22;52989;48.796;9.806;2023-02-22T09:22:15;8.50;99.90
66184;DHT22;52989;48.796;9.806;2023-02-22T09:24:40;8.70;99.70
66184;DHT22;52989;48.796;9.806;2023-02-22T09:27:07;8.80;99.10
66184;DHT22;52989;48.796;9.806;2023-02-22T09:29:35;9.20;99.50
66184;DHT22;52989;48.796;9.806;2023-02-22T09:32:00;9.30;98.10
66184;DHT22;52989;48.796;9.806;2023-02-22T09:34:26;9.40;97.90
66184;DHT22;52989;48.796;9.806;2023-02-22T09:36:54;9.60;97.80
66184;DHT22;52989;48.796;9.806;2023-02-22T09:39:20;9.70;97.50
66184;DHT22;52989;48.796;9.806;2023-02-22T09:46:49;10.20;96.30
66184;DHT22;52989;48.796;9.806;2023-02-22T09:49:17;10.30;95.40
66184;DHT22;52989;48.796;9.806;2023-02-22T09:51:47;10.40;94.70
66184;DHT22;52989;48.796;9.806;2023-02-22T09:54:23;10.50;94.30
66184;DHT22;52989;48.796;9.806;2023-02-22T09:56:50;10.60;93.40
66184;DHT22;52989;48.796;9.806;2023-02-22T09:59:19;10.90;92.30
66184;DHT22;52989;48.796;9.806;2023-02-22T10:01:47;11.00;91.20
66184;DHT22;52989;48.796;9.806;2023-02-22T10:04:16;11.20;90.90
66184;DHT22;52989;48.796;9.806;2023-02-22T10:06:53;11.30;90.60
66184;DHT22;52989;48.796;9.806;2023-02-22T10:09:21;11.50;89.20
66184;DHT22;52989;48.796;9.806;2023-02-22T10:12:01;11.60;88.60
66184;DHT22;52989;48.796;9.806;2023-02-22T10:17:09;12.00;88.60
66184;DHT22;52989;48.796;9.806;2023-02-22T10:22:06;12.30;87.40
66184;DHT22;52989;48.796;9.806;2023-02-22T10:24:59;12.40;87.10
66184;DHT22;52989;48.796;9.806;2023-02-22T10:27:27;12.40;86.90
66184;DHT22;52989;48.796;9.806;2023-02-22T10:29:57;12.40;85.10
66184;DHT22;52989;48.796;9.806;2023-02-22T10:32:25;12.40;84.40
66184;DHT22;52989;48.796;9.806;2023-02-22T10:34:53;12.40;84.00
66184;DHT22;52989;48.796;9.806;2023-02-22T10:37:24;12.50;84.20
66184;DHT22;52989;48.796;9.806;2023-02-22T10:39:51;12.50;85.30
66184;DHT22;52989;48.796;9.806;2023-02-22T10:42:18;12.70;85.40
66184;DHT22;52989;48.796;9.806;2023-02-22T10:44:45;12.80;84.80
66184;DHT22;52989;48.796;9.806;2023-02-22T10:47:12;12.80;84.20
66184;DHT22;52989;48.796;9.806;2023-02-22T10:49:45;12.80;84.50
66184;DHT22;52989;48.796;9.806;2023-02-22T10:52:21;12.70;83.80
66184;DHT22;52989;48.796;9.806;2023-02-22T10:54:48;12.80;84.30
66184;DHT22;52989;48.796;9.806;2023-02-22T10:57:15;12.80;84.20
66184;DHT22;52989;48.796;9.806;2023-02-22T10:59:44;12.80;84.00
66184;DHT22;52989;48.796;9.806;2023-02-22T11:02:19;12.80;84.00
66184;DHT22;52989;48.796;9.806;2023-02-22T11:04:47;12.90;83.50
66184;DHT22;52989;48.796;9.806;2023-02-22T11:07:30;13.00;82.90
66184;DHT22;52989;48.796;9.806;2023-02-22T11:09:57;12.90;82.60
66184;DHT22;52989;48.796;9.806;2023-02-22T11:12:25;12.80;82.60
66184;DHT22;52989;48.796;9.806;2023-02-22T11:14:51;12.80;82.80
66184;DHT22;52989;48.796;9.806;2023-02-22T11:17:18;12.70;83.00
66184;DHT22;52989;48.796;9.806;2023-02-22T11:19:46;12.60;82.10
66184;DHT22;52989;48.796;9.806;2023-02-22T11:22:18;12.60;83.30
66184;DHT22;52989;48.796;9.806;2023-02-22T11:24:45;12.40;82.40
66184;DHT22;52989;48.796;9.806;2023-02-22T11:27:19;12.60;83.10
66184;DHT22;52989;48.796;9.806;2023-02-22T11:29:46;12.70;82.30
66184;DHT22;52989;48.796;9.806;2023-02-22T11:32:16;12.80;82.50
66184;DHT22;52989;48.796;9.806;2023-02-22T11:34:45;13.00;82.50
66184;DHT22;52989;48.796;9.806;2023-02-22T11:37:15;13.10;79.90
66184;DHT22;52989;48.796;9.806;2023-02-22T11:39:41;13.20;79.60
66184;DHT22;52989;48.796;9.806;2023-02-22T11:44:42;13.30;78.40
66184;DHT22;52989;48.796;9.806;2023-02-22T11:47:09;13.60;78.70
66184;DHT22;52989;48.796;9.806;2023-02-22T11:49:37;13.80;76.50
66184;DHT22;52989;48.796;9.806;2023-02-22T12:02:16;14.00;74.10
66184;DHT22;52989;48.796;9.806;2023-02-22T12:07:41;14.30;73.40
66184;DHT22;52989;48.796;9.806;2023-02-22T12:13:05;14.80;72.50
66184;DHT22;52989;48.796;9.806;2023-02-22T12:20:59;14.50;71.40
66184;DHT22;52989;48.796;9.806;2023-02-22T12:23:35;14.80;71.30
66184;DHT22;52989;48.796;9.806;2023-02-22T12:26:23;15.10;70.60
66184;DHT22;52989;48.796;9.806;2023-02-22T12:36:33;14.80;71.30
66184;DHT22;52989;48.796;9.806;2023-02-22T12:39:02;15.00;71.40
66184;DHT22;52989;48.796;9.806;2023-02-22T12:44:03;15.40;70.60
66184;DHT22;52989;48.796;9.806;2023-02-22T12:48:59;15.10;69.10
66184;DHT22;52989;48.796;9.806;2023-02-22T12:51:46;14.90;70.20
66184;DHT22;52989;48.796;9.806;2023-02-22T12:54:15;15.10;69.00
66184;DHT22;52989;48.796;9.806;2023-02-22T13:01:55;15.10;67.80
66184;DHT22;52989;48.796;9.806;2023-02-22T13:04:22;15.00;67.90
66184;DHT22;52989;48.796;9.806;2023-02-22T13:06:50;15.40;68.40
66184;DHT22;52989;48.796;9.806;2023-02-22T13:09:32;15.30;67.40
66184;DHT22;52989;48.796;9.806;2023-02-22T13:19:44;15.30;68.50
66184;DHT22;52989;48.796;9.806;2023-02-22T13:24:52;15.10;68.30
66184;DHT22;52989;48.796;9.806;2023-02-22T13:27:21;15.00;67.90
66184;DHT22;52989;48.796;9.806;2023-02-22T13:29:51;15.10;68.60
66184;DHT22;52989;48.796;9.806;2023-02-22T13:34:50;15.40;68.60
66184;DHT22;52989;48.796;9.806;2023-02-22T13:37:40;15.50;68.20
66184;DHT22;52989;48.796;9.806;2023-02-22T13:42:53;15.50;67.40
66184;DHT22;52989;48.796;9.806;2023-02-22T13:48:09;15.60;67.00
66184;DHT22;52989;48.796;9.806;2023-02-22T13:50:41;15.90;67.40
66184;DHT22;52989;48.796;9.806;2023-02-22T13:53:13;15.90;66.00
66184;DHT22;52989;48.796;9.806;2023-02-22T13:55:40;15.90;67.00
66184;DHT22;52989;48.796;9.806;2023-02-22T13:58:08;16.10;67.00
66184;DHT22;52989;48.796;9.806;2023-02-22T14:03:39;15.80;66.50
66184;DHT22;52989;48.796;9.806;2023-02-22T14:06:05;15.60;66.90
66184;DHT22;52989;48.796;9.806;2023-02-22T14:11:01;16.00;66.10
66184;DHT22;52989;48.796;9.806;2023-02-22T14:13:30;15.80;65.90
66184;DHT22;52989;48.796;9.806;2023-02-22T14:18:30;15.80;66.50
66184;DHT22;52989;48.796;9.806;2023-02-22T14:21:06;15.40;66.00
66184;DHT22;52989;48.796;9.806;2023-02-22T14:23:34;15.20;66.80
66184;DHT22;52989;48.796;9.806;2023-02-22T14:26:09;15.00;68.00
66184;DHT22;52989;48.796;9.806;2023-02-22T14:31:04;14.70;68.60
66184;DHT22;52989;48.796;9.806;2023-02-22T14:36:14;14.80;69.00
66184;DHT22;52989;48.796;9.806;2023-02-22T14:38:41;14.70;69.60
66184;DHT22;52989;48.796;9.806;2023-02-22T14:41:08;14.70;69.40
66184;DHT22;52989;48.796;9.806;2023-02-22T14:43:34;14.60;69.50
66184;DHT22;52989;48.796;9.806;2023-02-22T14:46:00;14.60;70.20
66184;DHT22;52989;48.796;9.806;2023-02-22T14:48:38;14.60;70.00
66184;DHT22;52989;48.796;9.806;2023-02-22T14:51:16;14.50;70.00
66184;DHT22;52989;48.796;9.806;2023-02-22T14:53:45;14.40;70.20
66184;DHT22;52989;48.796;9.806;2023-02-22T14:56:15;14.60;70.20
66184;DHT22;52989;48.796;9.806;2023-02-22T14:58:43;14.80;69.60
66184;DHT22;52989;48.796;9.806;2023-02-22T15:01:30;14.80;69.50
66184;DHT22;52989;48.796;9.806;2023-02-22T15:04:09;14.60;69.70
66184;DHT22;52989;48.796;9.806;2023-02-22T15:06:40;14.60;70.40
66184;DHT22;52989;48.796;9.806;2023-02-22T15:09:20;14.60;69.70
66184;DHT22;52989;48.796;9.806;2023-02-22T15:11:52;14.50;69.30
66184;DHT22;52989;48.796;9.806;2023-02-22T15:14:20;14.40;68.90
66184;DHT22;52989;48.796;9.806;2023-02-22T15:16:46;14.30;69.90
66184;DHT22;52989;48.796;9.806;2023-02-22T15:19:13;14.30;70.30
66184;DHT22;52989;48.796;9.806;2023-02-22T15:21:46;14.30;70.00
66184;DHT22;52989;48.796;9.806;2023-02-22T15:24:17;14.20;70.20
66184;DHT22;52989;48.796;9.806;2023-02-22T15:26:45;14.00;70.20
66184;DHT22;52989;48.796;9.806;2023-02-22T15:29:14;14.00;70.20
66184;DHT22;52989;48.796;9.806;2023-02-22T15:31:40;14.00;70.50
66184;DHT22;52989;48.796;9.806;2023-02-22T15:36:42;13.90;71.20
66184;DHT22;52989;48.796;9.806;2023-02-22T15:39:17;13.80;71.70
66184;DHT22;52989;48.796;9.806;2023-02-22T15:41:43;13.70;72.10
66184;DHT22;52989;48.796;9.806;2023-02-22T15:44:09;13.70;72.60
66184;DHT22;52989;48.796;9.806;2023-02-22T15:46:37;13.50;72.50
66184;DHT22;52989;48.796;9.806;2023-02-22T15:51:28;13.40;72.50
66184;DHT22;52989;48.796;9.806;2023-02-22T15:53:54;13.20;72.70
66184;DHT22;52989;48.796;9.806;2023-02-22T15:56:24;13.20;73.00
66184;DHT22;52989;48.796;9.806;2023-02-22T15:58:50;13.10;73.30
66184;DHT22;52989;48.796;9.806;2023-02-22T16:01:16;12.90;73.50
66184;DHT22;52989;48.796;9.806;2023-02-22T16:03:44;12.80;73.60
66184;DHT22;52989;48.796;9.806;2023-02-22T16:06:12;12.70;74.10
66184;DHT22;52989;48.796;9.806;2023-02-22T16:08:42;12.60;74.80
66184;DHT22;52989;48.796;9.806;2023-02-22T16:11:10;12.50;75.50
66184;DHT22;52989;48.796;9.806;2023-02-22T16:13:39;12.40;76.10
66184;DHT22;52989;48.796;9.806;2023-02-22T16:18:49;12.10;76.80
66184;DHT22;52989;48.796;9.806;2023-02-22T16:21:16;12.00;77.10
66184;DHT22;52989;48.796;9.806;2023-02-22T16:23:46;12.00;77.30
66184;DHT22;52989;48.796;9.806;2023-02-22T16:28:53;11.90;77.60
66184;DHT22;52989;48.796;9.806;2023-02-22T16:31:20;11.80;77.70
66184;DHT22;52989;48.796;9.806;2023-02-22T16:33:46;11.80;77.90
66184;DHT22;52989;48.796;9.806;2023-02-22T16:36:12;11.70;78.30
66184;DHT22;52989;48.796;9.806;2023-02-22T16:38:37;11.70;78.40
66184;DHT22;52989;48.796;9.806;2023-02-22T16:41:04;11.60;78.50
66184;DHT22;52989;48.796;9.806;2023-02-22T16:43:30;11.60;78.50
66184;DHT22;52989;48.796;9.806;2023-02-22T16:45:57;11.60;79.00
66184;DHT22;52989;48.796;9.806;2023-02-22T16:48:23;11.50;79.10
66184;DHT22;52989;48.796;9.806;2023-02-22T16:50:50;11.40;79.20
66184;DHT22;52989;48.796;9.806;2023-02-22T16:53:16;11.40;79.30
66184;DHT22;52989;48.796;9.806;2023-02-22T16:55:47;11.30;79.70
66184;DHT22;52989;48.796;9.806;2023-02-22T16:58:13;11.30;80.00
66184;DHT22;52989;48.796;9.806;2023-02-22T17:00:39;11.20;80.40
66184;DHT22;52989;48.796;9.806;2023-02-22T17:03:08;11.10;80.70
66184;DHT22;52989;48.796;9.806;2023-02-22T17:05:35;11.10;81.00
66184;DHT22;52989;48.796;9.806;2023-02-22T17:08:02;11.00;81.40
66184;DHT22;52989;48.796;9.806;2023-02-22T17:10:28;10.90;81.60
66184;DHT22;52989;48.796;9.806;2023-02-22T17:12:54;10.90;81.70
66184;DHT22;52989;48.796;9.806;2023-02-22T17:15:21;10.70;82.30
66184;DHT22;52989;48.796;9.806;2023-02-22T17:17:47;10.70;82.60
66184;DHT22;52989;48.796;9.806;2023-02-22T17:20:13;10.60;82.90
66184;DHT22;52989;48.796;9.806;2023-02-22T17:22:38;10.50;83.20
66184;DHT22;52989;48.796;9.806;2023-02-22T17:25:27;10.40;83.80
66184;DHT22;52989;48.796;9.806;2023-02-22T17:27:50;10.40;84.40
66184;DHT22;52989;48.796;9.806;2023-02-22T17:30:15;10.40;84.60
66184;DHT22;52989;48.796;9.806;2023-02-22T17:32:41;10.40;85.00
66184;DHT22;52989;48.796;9.806;2023-02-22T17:35:07;10.30;85.20
66184;DHT22;52989;48.796;9.806;2023-02-22T17:37:32;10.20;85.60
66184;DHT22;52989;48.796;9.806;2023-02-22T17:39:58;10.30;85.70